createdAt,value
2022-09-06T00:00:39.849Z,8.3
2022-09-06T00:01:39.261Z,7.3
2022-09-06T00:02:39.436Z,7.6
2022-09-06T00:03:39.423Z,7.8
2022-09-06T00:04:39.680Z,7.5
2022-09-06T00:05:39.454Z,7.6
2022-09-06T00:06:39.249Z,6.7
2022-09-06T00:07:39.988Z,8.2
2022-09-06T00:08:39.635Z,7.3
2022-09-06T00:09:39.089Z,7.9
2022-09-06T00:10:39.138Z,7.0
2022-09-06T00:11:39.566Z,7.3
2022-09-06T00:12:39.545Z,6.7
2022-09-06T00:13:39.685Z,7.8
2022-09-06T00:14:39.798Z,7.2
2022-09-06T00:15:39.433Z,6.2
2022-09-06T00:16:39.071Z,6.1
2022-09-06T00:17:38.904Z,7.2
2022-09-06T00:18:39.901Z,7.7
2022-09-06T00:19:39.424Z,7.5
2022-09-06T00:20:39.263Z,7.4
2022-09-06T00:21:39.100Z,6.8
2022-09-06T00:22:38.881Z,7.6
2022-09-06T00:23:39.621Z,7.0
2022-09-06T00:24:39.323Z,6.1
2022-09-06T00:25:39.152Z,5.9
2022-09-06T00:26:39.033Z,7.8
2022-09-06T00:27:39.692Z,6.0
2022-09-06T00:28:39.601Z,6.5
2022-09-06T00:29:39.765Z,7.9
2022-09-06T00:30:39.507Z,8.1
2022-09-06T00:31:39.351Z,7.3
2022-09-06T00:32:39.138Z,8.9
2022-09-06T00:33:39.497Z,6.0
2022-09-06T00:34:39.659Z,6.4
2022-09-06T00:35:39.420Z,6.3
2022-09-06T00:36:39.237Z,6.4
2022-09-06T00:37:39.052Z,7.6
2022-09-06T00:38:40.204Z,7.2
2022-09-06T00:39:39.668Z,8.3
2022-09-06T00:40:39.407Z,7.7
2022-09-06T00:41:39.227Z,8.3
2022-09-06T00:42:39.061Z,7.2
2022-09-06T00:43:39.967Z,6.9
2022-09-06T00:44:39.564Z,7.6
2022-09-06T00:45:39.292Z,6.8
2022-09-06T00:46:41.427Z,7.8
2022-09-06T00:47:40.147Z,7.0
2022-09-06T00:48:40.244Z,6.9
2022-09-06T00:49:42.537Z,7.5
2022-09-06T00:50:39.221Z,7.9
2022-09-06T00:51:39.333Z,6.6
2022-09-06T00:52:40.466Z,6.6
2022-09-06T00:53:39.546Z,6.3
2022-09-06T00:54:39.725Z,7.4
2022-09-06T00:55:39.168Z,7.0
2022-09-06T00:56:40.729Z,7.1
2022-09-06T00:57:40.130Z,6.6
2022-09-06T00:58:39.431Z,7.4
2022-09-06T00:59:40.835Z,6.5
2022-09-06T01:00:39.525Z,8.2
2022-09-06T01:01:39.434Z,6.3
2022-09-06T01:02:39.205Z,7.0
2022-09-06T01:03:39.486Z,7.2
2022-09-06T01:04:40.751Z,6.9
2022-09-06T01:05:46.499Z,8.2
2022-09-06T01:06:55.995Z,6.8
2022-09-06T01:07:53.002Z,7.1
2022-09-06T01:08:44.158Z,6.7
2022-09-06T01:09:43.932Z,6.2
2022-09-06T01:10:50.488Z,7.1
2022-09-06T01:12:02.006Z,6.3
2022-09-06T01:12:47.000Z,6.7
2022-09-06T01:13:53.005Z,5.9
2022-09-06T01:14:52.505Z,7.5
2022-09-06T01:15:44.575Z,7.1
2022-09-06T01:16:44.313Z,6.1
2022-09-06T01:17:57.456Z,5.9
2022-09-06T01:18:58.530Z,7.1
2022-09-06T01:19:56.948Z,7.4
2022-09-06T01:20:47.013Z,7.1
2022-09-06T01:21:52.706Z,6.9
2022-09-06T01:22:44.086Z,6.5
2022-09-06T01:23:57.804Z,6.4
2022-09-06T01:24:59.510Z,6.0
2022-09-06T01:26:02.508Z,6.6
2022-09-06T01:26:44.587Z,7.2
2022-09-06T01:28:02.015Z,7.2
2022-09-06T01:28:41.852Z,6.9
2022-09-06T01:29:55.049Z,7.2
2022-09-06T01:30:41.678Z,7.6
2022-09-06T01:31:44.549Z,6.7
2022-09-06T01:32:49.511Z,6.7
2022-09-06T01:33:44.596Z,7.4
2022-09-06T01:34:44.478Z,7.7
2022-09-06T01:35:41.553Z,7.6
2022-09-06T01:37:09.585Z,6.2
2022-09-06T01:37:38.990Z,6.9
2022-09-06T01:38:39.237Z,7.3
2022-09-06T01:39:39.790Z,6.3
2022-09-06T01:40:39.621Z,6.2
2022-09-06T01:41:39.453Z,6.7
2022-09-06T01:42:40.638Z,7.2
2022-09-06T01:43:41.792Z,6.0
2022-09-06T01:44:41.939Z,6.6
2022-09-06T01:45:59.068Z,6.3
2022-09-06T01:46:43.553Z,6.5
2022-09-06T01:47:50.030Z,5.6
2022-09-06T01:48:58.534Z,7.1
2022-09-06T01:49:59.544Z,6.1
2022-09-06T01:50:44.393Z,7.7
2022-09-06T01:51:44.158Z,5.6
2022-09-06T01:52:52.525Z,6.2
2022-09-06T01:53:52.517Z,5.4
2022-09-06T01:54:47.545Z,7.1
2022-09-06T01:55:44.368Z,6.5
2022-09-06T01:56:47.024Z,6.7
2022-09-06T01:57:49.522Z,5.9
2022-09-06T01:58:46.530Z,6.7
2022-09-06T01:59:56.161Z,5.9
2022-09-06T02:00:44.250Z,7.4
2022-09-06T02:01:50.120Z,5.7
2022-09-06T02:02:43.543Z,6.6
2022-09-06T02:03:44.571Z,7.0
2022-09-06T02:04:44.358Z,5.7
2022-09-06T02:05:47.579Z,6.6
2022-09-06T02:06:44.231Z,5.6
2022-09-06T02:07:41.323Z,6.6
2022-09-06T02:08:47.055Z,6.7
2022-09-06T02:09:41.855Z,7.0
2022-09-06T02:10:45.012Z,5.8
2022-09-06T02:11:41.670Z,5.5
2022-09-06T02:12:41.220Z,5.2
2022-09-06T02:13:56.040Z,6.5
2022-09-06T02:14:42.059Z,7.2
2022-09-06T02:15:43.083Z,5.4
2022-09-06T02:16:41.156Z,5.6
2022-09-06T02:17:44.143Z,6.1
2022-09-06T02:18:43.413Z,6.0
2022-09-06T02:19:43.700Z,6.2
2022-09-06T02:20:41.072Z,7.0
2022-09-06T02:21:41.250Z,5.6
2022-09-06T02:22:42.353Z,5.5
2022-09-06T02:23:41.805Z,6.2
2022-09-06T02:24:41.307Z,6.6
2022-09-06T02:25:42.136Z,6.4
2022-09-06T02:26:42.572Z,5.7
2022-09-06T02:27:39.515Z,5.7
2022-09-06T02:28:39.516Z,6.1
2022-09-06T02:29:39.255Z,5.7
2022-09-06T02:30:41.597Z,5.3
2022-09-06T02:31:43.544Z,6.8
2022-09-06T02:32:43.427Z,5.9
2022-09-06T02:33:40.029Z,5.9
2022-09-06T02:34:39.804Z,7.0
2022-09-06T02:35:44.160Z,6.2
2022-09-06T02:36:39.150Z,7.0
2022-09-06T02:37:39.884Z,7.5
2022-09-06T02:38:39.778Z,6.0
2022-09-06T02:39:39.421Z,6.8
2022-09-06T02:40:39.250Z,5.8
2022-09-06T02:41:39.896Z,6.5
2022-09-06T02:42:39.765Z,6.7
2022-09-06T02:43:41.145Z,6.0
2022-09-06T02:44:39.270Z,6.3
2022-09-06T02:45:39.102Z,5.9
2022-09-06T02:46:38.900Z,5.8
2022-09-06T02:47:39.585Z,6.0
2022-09-06T02:48:39.577Z,5.9
2022-09-06T02:49:39.143Z,6.3
2022-09-06T02:50:39.063Z,5.6
2022-09-06T02:51:39.744Z,6.5
2022-09-06T02:52:39.478Z,6.0
2022-09-06T02:53:39.851Z,5.7
2022-09-06T02:54:39.083Z,5.6
2022-09-06T02:55:39.138Z,6.5
2022-09-06T02:56:39.611Z,6.0
2022-09-06T02:57:39.375Z,5.6
2022-09-06T02:58:39.147Z,5.3
2022-09-06T02:59:38.942Z,6.5
2022-09-06T03:00:39.699Z,6.2
2022-09-06T03:01:39.793Z,6.3
2022-09-06T03:02:39.377Z,6.6
2022-09-06T03:03:39.077Z,6.3
2022-09-06T03:04:38.905Z,6.0
2022-09-06T03:05:39.579Z,6.6
2022-09-06T03:06:39.380Z,5.9
2022-09-06T03:07:39.174Z,6.3
2022-09-06T03:08:38.972Z,5.7
2022-09-06T03:09:39.733Z,5.4
2022-09-06T03:10:39.512Z,5.5
2022-09-06T03:11:39.363Z,5.4
2022-09-06T03:12:40.850Z,6.2
2022-09-06T03:13:38.953Z,6.7
2022-09-06T03:14:39.569Z,6.6
2022-09-06T03:15:39.453Z,6.5
2022-09-06T03:16:39.237Z,6.2
2022-09-06T03:17:39.337Z,6.0
2022-09-06T03:18:39.746Z,5.6
2022-09-06T03:19:39.543Z,6.6
2022-09-06T03:20:39.390Z,6.5
2022-09-06T03:21:39.167Z,5.7
2022-09-06T03:22:39.439Z,6.1
2022-09-06T03:23:39.718Z,6.6
2022-09-06T03:24:39.447Z,5.7
2022-09-06T03:25:39.254Z,6.5
2022-09-06T03:26:39.463Z,6.2
2022-09-06T03:27:39.316Z,5.1
2022-09-06T03:28:39.097Z,5.9
2022-09-06T03:29:38.903Z,5.0
2022-09-06T03:30:39.769Z,5.9
2022-09-06T03:31:39.444Z,6.0
2022-09-06T03:32:39.238Z,5.4
2022-09-06T03:33:39.074Z,6.1
2022-09-06T03:34:39.672Z,5.1
2022-09-06T03:35:39.818Z,5.1
2022-09-06T03:36:39.361Z,5.9
2022-09-06T03:37:39.112Z,6.2
2022-09-06T03:38:39.014Z,6.0
2022-09-06T03:39:39.749Z,6.0
2022-09-06T03:40:39.483Z,6.0
2022-09-06T03:41:39.298Z,6.3
2022-09-06T03:42:39.088Z,6.6
2022-09-06T03:43:38.891Z,5.2
2022-09-06T03:44:39.607Z,6.9
2022-09-06T03:45:39.933Z,5.4
2022-09-06T03:46:39.146Z,6.0
2022-09-06T03:47:38.969Z,5.7
2022-09-06T03:48:39.676Z,5.6
2022-09-06T03:49:39.564Z,5.3
2022-09-06T03:50:43.152Z,6.4
2022-09-06T03:51:39.113Z,5.7
2022-09-06T03:52:38.990Z,5.9
2022-09-06T03:53:39.623Z,5.6
2022-09-06T03:54:39.447Z,6.8
2022-09-06T03:55:39.413Z,5.7
2022-09-06T03:56:38.998Z,5.5
2022-09-06T03:57:39.742Z,5.2
2022-09-06T03:58:39.563Z,6.0
2022-09-06T03:59:39.375Z,5.6
2022-09-06T04:00:39.561Z,6.0
2022-09-06T04:01:39.075Z,6.2
2022-09-06T04:02:39.644Z,6.2
2022-09-06T04:03:39.424Z,4.7
2022-09-06T04:04:39.307Z,5.3
2022-09-06T04:05:39.055Z,4.9
2022-09-06T04:06:38.914Z,5.2
2022-09-06T04:07:39.595Z,5.7
2022-09-06T04:08:39.542Z,5.8
2022-09-06T04:09:39.164Z,5.3
2022-09-06T04:10:38.997Z,6.1
2022-09-06T04:11:39.690Z,5.7
2022-09-06T04:12:39.492Z,5.6
2022-09-06T04:13:39.317Z,6.7
2022-09-06T04:14:39.050Z,5.2
2022-09-06T04:15:38.901Z,5.4
2022-09-06T04:16:39.761Z,4.4
2022-09-06T04:17:42.495Z,6.0
2022-09-06T04:18:39.269Z,5.4
2022-09-06T04:19:39.115Z,6.0
2022-09-06T04:20:38.868Z,5.7
2022-09-06T04:21:39.570Z,5.7
2022-09-06T04:22:39.340Z,5.1
2022-09-06T04:23:40.076Z,6.1
2022-09-06T04:24:38.903Z,6.5
2022-09-06T04:25:39.640Z,5.6
2022-09-06T04:26:39.579Z,5.5
2022-09-06T04:27:39.396Z,5.4
2022-09-06T04:28:39.060Z,5.7
2022-09-06T04:29:38.862Z,5.4
2022-09-06T04:30:39.543Z,4.8
2022-09-06T04:31:39.455Z,4.8
2022-09-06T04:32:39.268Z,5.2
2022-09-06T04:33:39.326Z,5.4
2022-09-06T04:34:39.663Z,5.9
2022-09-06T04:35:39.463Z,5.2
2022-09-06T04:36:39.332Z,5.9
2022-09-06T04:37:39.277Z,6.2
2022-09-06T04:38:40.302Z,6.5
2022-09-06T04:39:39.625Z,5.7
2022-09-06T04:40:39.404Z,5.4
2022-09-06T04:41:39.183Z,5.8
2022-09-06T04:42:38.974Z,5.6
2022-09-06T04:43:39.719Z,4.9
2022-09-06T04:44:39.591Z,5.7
2022-09-06T04:45:39.858Z,5.6
2022-09-06T04:46:40.340Z,4.8
2022-09-06T04:47:38.956Z,4.4
2022-09-06T04:48:39.642Z,6.0
2022-09-06T04:49:40.361Z,5.7
2022-09-06T04:50:39.220Z,5.6
2022-09-06T04:51:39.020Z,4.9
2022-09-06T04:52:39.729Z,4.5
2022-09-06T04:53:39.555Z,5.7
2022-09-06T04:54:39.393Z,5.8
2022-09-06T04:55:39.230Z,5.1
2022-09-06T04:56:39.030Z,5.6
2022-09-06T04:57:44.468Z,4.9
2022-09-06T04:58:39.435Z,5.5
2022-09-06T04:59:39.294Z,5.6
2022-09-06T05:00:39.233Z,5.9
2022-09-06T05:01:38.875Z,5.9
2022-09-06T05:02:39.685Z,4.9
2022-09-06T05:03:38.905Z,6.0
2022-09-06T05:04:39.710Z,6.3
2022-09-06T05:05:39.551Z,4.9
2022-09-06T05:06:39.267Z,5.3
2022-09-06T05:07:39.080Z,5.8
2022-09-06T05:08:39.640Z,6.1
2022-09-06T05:09:39.586Z,5.7
2022-09-06T05:10:39.579Z,5.6
2022-09-06T05:11:39.182Z,5.1
2022-09-06T05:12:42.151Z,5.3
2022-09-06T05:13:39.776Z,5.0
2022-09-06T05:14:39.630Z,5.0
2022-09-06T05:15:39.399Z,4.4
2022-09-06T05:16:39.196Z,5.3
2022-09-06T05:17:38.953Z,4.6
2022-09-06T05:18:39.567Z,5.4
2022-09-06T05:19:39.664Z,5.4
2022-09-06T05:20:39.254Z,5.4
2022-09-06T05:21:39.025Z,6.7
2022-09-06T05:22:39.741Z,5.5
2022-09-06T05:23:39.517Z,4.5
2022-09-06T05:24:39.352Z,4.6
2022-09-06T05:25:39.221Z,5.5
2022-09-06T05:26:38.940Z,5.2
2022-09-06T05:27:39.595Z,5.2
2022-09-06T05:28:39.493Z,4.6
2022-09-06T05:29:39.205Z,3.5
2022-09-06T05:30:39.106Z,4.8
2022-09-06T05:31:39.895Z,4.6
2022-09-06T05:32:39.607Z,5.3
2022-09-06T05:33:39.454Z,5.6
2022-09-06T05:34:39.238Z,5.2
2022-09-06T05:35:39.049Z,4.6
2022-09-06T05:36:39.711Z,4.8
2022-09-06T05:37:39.491Z,5.7
2022-09-06T05:38:39.295Z,5.8
2022-09-06T05:39:39.182Z,5.0
2022-09-06T05:40:38.964Z,5.1
2022-09-06T05:41:39.651Z,4.2
2022-09-06T05:42:39.470Z,4.5
2022-09-06T05:43:39.291Z,5.1
2022-09-06T05:44:39.060Z,4.6
2022-09-06T05:45:38.962Z,5.1
2022-09-06T05:46:42.639Z,5.7
2022-09-06T05:47:39.367Z,5.0
2022-09-06T05:48:39.320Z,5.3
2022-09-06T05:49:39.054Z,4.6
2022-09-06T05:50:39.690Z,4.8
2022-09-06T05:51:39.648Z,5.3
2022-09-06T05:52:39.341Z,5.4
2022-09-06T05:53:42.386Z,5.3
2022-09-06T05:54:38.946Z,5.3
2022-09-06T05:55:42.912Z,4.9
2022-09-06T05:56:39.350Z,4.4
2022-09-06T05:57:39.201Z,4.8
2022-09-06T05:58:39.004Z,5.6
2022-09-06T05:59:39.663Z,5.4
2022-09-06T06:00:39.492Z,4.9
2022-09-06T06:01:44.260Z,5.2
2022-09-06T06:02:39.193Z,5.2
2022-09-06T06:03:39.082Z,5.0
2022-09-06T06:04:39.592Z,4.5
2022-09-06T06:05:39.337Z,4.5
2022-09-06T06:06:39.238Z,4.6
2022-09-06T06:07:39.335Z,4.0
2022-09-06T06:08:39.291Z,5.5
2022-09-06T06:09:39.095Z,5.1
2022-09-06T06:10:39.735Z,5.7
2022-09-06T06:11:39.626Z,5.2
2022-09-06T06:12:39.304Z,5.6
2022-09-06T06:13:39.547Z,5.4
2022-09-06T06:14:38.930Z,4.9
2022-09-06T06:15:39.594Z,4.9
2022-09-06T06:16:39.461Z,4.6
2022-09-06T06:17:39.199Z,5.4
2022-09-06T06:18:39.016Z,4.9
2022-09-06T06:19:39.717Z,4.8
2022-09-06T06:20:39.518Z,5.2
2022-09-06T06:21:39.332Z,4.9
2022-09-06T06:22:39.175Z,4.7
2022-09-06T06:23:39.378Z,4.4
2022-09-06T06:24:39.674Z,4.4
2022-09-06T06:25:39.442Z,3.9
2022-09-06T06:26:39.296Z,4.8
2022-09-06T06:27:39.070Z,5.1
2022-09-06T06:28:39.832Z,4.0
2022-09-06T06:29:39.530Z,4.8
2022-09-06T06:30:39.448Z,4.3
2022-09-06T06:31:39.327Z,3.7
2022-09-06T06:32:38.998Z,5.1
2022-09-06T06:33:39.847Z,3.8
2022-09-06T06:34:39.408Z,5.1
2022-09-06T06:35:40.204Z,5.7
2022-09-06T06:36:39.056Z,5.1
2022-09-06T06:37:39.798Z,4.2
2022-09-06T06:38:39.825Z,5.4
2022-09-06T06:39:38.975Z,4.5
2022-09-06T06:40:44.063Z,4.6
2022-09-06T06:41:39.393Z,5.9
2022-09-06T06:42:39.230Z,5.6
2022-09-06T06:43:39.267Z,5.4
2022-09-06T06:44:39.685Z,6.7
2022-09-06T06:45:42.349Z,5.0
2022-09-06T06:46:39.285Z,5.8
2022-09-06T06:47:39.123Z,5.8
2022-09-06T06:48:39.177Z,5.1
2022-09-06T06:49:39.617Z,4.4
2022-09-06T06:50:39.419Z,4.9
2022-09-06T06:51:39.261Z,4.4
2022-09-06T06:52:39.113Z,4.3
2022-09-06T06:53:38.950Z,5.4
2022-09-06T06:54:39.557Z,5.0
2022-09-06T06:55:44.182Z,4.1
2022-09-06T06:56:39.180Z,4.6
2022-09-06T06:57:39.025Z,4.7
2022-09-06T06:58:39.677Z,4.9
2022-09-06T06:59:39.478Z,5.0
2022-09-06T07:00:39.342Z,4.8
2022-09-06T07:01:39.284Z,4.2
2022-09-06T07:02:38.950Z,5.0
2022-09-06T07:03:39.617Z,4.3
2022-09-06T07:04:39.371Z,5.0
2022-09-06T07:07:41.133Z,5.6
2022-09-06T07:08:39.987Z,5.4
2022-09-06T07:10:39.111Z,4.7
2022-09-06T07:11:38.993Z,4.9
2022-09-06T07:12:39.648Z,5.4
2022-09-06T07:13:39.381Z,6.1
2022-09-06T07:14:39.194Z,5.6
2022-09-06T07:15:38.981Z,5.6
2022-09-06T07:16:39.825Z,5.4
2022-09-06T07:17:39.580Z,5.8
2022-09-06T07:18:39.672Z,5.0
2022-09-06T07:21:39.380Z,6.0
2022-09-06T07:22:39.348Z,5.0
2022-09-06T07:24:06.553Z,5.4
2022-09-06T07:24:39.450Z,5.0
2022-09-06T07:25:39.308Z,5.2
2022-09-06T07:26:39.679Z,4.9
2022-09-06T07:27:46.594Z,4.4
2022-09-06T07:28:39.165Z,6.2
2022-09-06T07:29:39.001Z,5.1
2022-09-06T07:30:40.922Z,4.9
2022-09-06T07:32:39.188Z,6.3
2022-09-06T07:33:39.191Z,5.9
2022-09-06T07:34:39.723Z,5.3
2022-09-06T07:35:39.561Z,5.5
2022-09-06T07:36:39.374Z,5.8
2022-09-06T07:37:39.172Z,5.5
2022-09-06T07:38:39.182Z,5.2
2022-09-06T07:39:39.643Z,5.2
2022-09-06T07:40:39.517Z,4.6
2022-09-06T07:41:39.249Z,5.8
2022-09-06T07:42:39.318Z,4.5
2022-09-06T07:43:39.352Z,5.1
2022-09-06T07:44:39.111Z,5.6
2022-09-06T07:45:38.882Z,5.8
2022-09-06T07:46:39.813Z,5.7
2022-09-06T07:47:58.611Z,5.7
2022-09-06T07:48:39.807Z,5.2
2022-09-06T07:49:39.174Z,6.8
2022-09-06T07:50:48.467Z,6.1
2022-09-06T07:51:39.511Z,6.1
2022-09-06T07:53:09.659Z,6.6
2022-09-06T07:53:40.038Z,6.9
2022-09-06T07:54:38.955Z,5.7
2022-09-06T07:55:39.633Z,5.8
2022-09-06T07:56:39.514Z,6.4
2022-09-06T07:57:39.265Z,5.6
2022-09-06T07:58:39.445Z,6.0
2022-09-06T07:59:42.451Z,5.1
2022-09-06T08:00:39.569Z,5.5
2022-09-06T08:01:39.657Z,5.6
2022-09-06T08:02:39.167Z,4.7
2022-09-06T08:03:38.980Z,5.2
2022-09-06T08:04:39.743Z,6.1
2022-09-06T08:06:09.168Z,5.0
2022-09-06T08:07:39.458Z,5.2
2022-09-06T08:09:00.214Z,4.8
2022-09-06T08:09:39.663Z,5.3
2022-09-06T08:10:39.387Z,5.2
2022-09-06T08:11:39.812Z,6.2
2022-09-06T08:12:39.498Z,5.5
2022-09-06T08:13:39.212Z,5.6
2022-09-06T08:14:39.070Z,4.4
2022-09-06T08:15:41.720Z,5.5
2022-09-06T08:16:39.665Z,4.7
2022-09-06T08:17:39.408Z,4.6
2022-09-06T08:18:39.272Z,4.8
2022-09-06T08:19:39.048Z,6.5
2022-09-06T08:20:39.744Z,6.2
2022-09-06T08:21:39.487Z,6.1
2022-09-06T08:22:39.269Z,5.0
2022-09-06T08:23:39.927Z,6.8
2022-09-06T08:24:38.917Z,6.0
2022-09-06T08:25:39.732Z,7.3
2022-09-06T08:26:39.438Z,6.9
2022-09-06T08:27:39.214Z,7.1
2022-09-06T08:28:39.035Z,7.1
2022-09-06T08:29:39.676Z,7.6
2022-09-06T08:30:39.540Z,8.2
2022-09-06T08:31:40.661Z,7.1
2022-09-06T08:32:39.095Z,7.1
2022-09-06T08:33:39.491Z,8.4
2022-09-06T08:34:39.625Z,7.4
2022-09-06T08:35:39.439Z,7.7
2022-09-06T08:36:39.561Z,6.6
2022-09-06T08:37:39.431Z,7.9
2022-09-06T08:38:39.673Z,7.8
2022-09-06T08:39:39.150Z,6.6
2022-09-06T08:40:39.765Z,6.4
2022-09-06T08:41:55.166Z,8.1
2022-09-06T08:42:39.405Z,8.1
2022-09-06T08:43:44.030Z,8.4
2022-09-06T08:45:40.170Z,8.8
2022-09-06T08:46:46.747Z,8.9
2022-09-06T08:47:39.713Z,8.1
2022-09-06T08:48:39.468Z,8.9
2022-09-06T08:49:44.110Z,8.0
2022-09-06T08:50:41.982Z,8.8
2022-09-06T08:51:52.588Z,9.3
2022-09-06T08:52:49.519Z,8.2
2022-09-06T08:53:43.438Z,8.2
2022-09-06T08:54:40.381Z,9.4
2022-09-06T08:55:50.092Z,10.9
2022-09-06T08:56:44.138Z,9.1
2022-09-06T08:57:49.659Z,9.2
2022-09-06T08:58:43.781Z,9.1
2022-09-06T08:59:40.375Z,9.8
2022-09-06T09:00:40.443Z,8.9
2022-09-06T09:01:44.077Z,8.6
2022-09-06T09:02:46.243Z,9.1
2022-09-06T09:03:41.550Z,7.6
2022-09-06T09:04:50.104Z,8.6
2022-09-06T09:05:40.107Z,7.7
2022-09-06T09:06:39.133Z,10.2
2022-09-06T09:07:49.471Z,9.9
2022-09-06T09:08:49.258Z,8.6
2022-09-06T09:09:39.362Z,9.4
2022-09-06T09:10:40.969Z,9.0
2022-09-06T09:11:44.320Z,8.6
2022-09-06T09:12:44.091Z,8.7
2022-09-06T09:13:43.905Z,9.0
2022-09-06T09:14:40.280Z,10.3
2022-09-06T09:15:40.570Z,9.2
2022-09-06T09:16:38.986Z,10.5
2022-09-06T09:17:39.999Z,9.4
2022-09-06T09:18:41.400Z,9.4
2022-09-06T09:19:40.635Z,10.2
2022-09-06T09:20:39.481Z,10.0
2022-09-06T09:21:39.414Z,8.9
2022-09-06T09:22:39.544Z,9.0
2022-09-06T09:23:38.993Z,9.0
2022-09-06T09:24:39.610Z,10.0
2022-09-06T09:25:39.152Z,8.3
2022-09-06T09:26:53.898Z,9.1
2022-09-06T09:27:39.578Z,9.3
2022-09-06T09:28:44.576Z,8.3
2022-09-06T09:30:47.608Z,8.5
2022-09-06T09:31:44.501Z,9.0
2022-09-06T09:32:39.977Z,9.7
2022-09-06T09:33:39.633Z,8.5
2022-09-06T09:34:39.384Z,9.0
2022-09-06T09:35:40.412Z,8.6
2022-09-06T09:37:47.511Z,8.6
2022-09-06T09:38:42.065Z,9.4
2022-09-06T09:39:39.846Z,9.1
2022-09-06T09:40:47.126Z,9.6
2022-09-06T09:41:40.843Z,10.6
2022-09-06T09:42:39.558Z,10.5
2022-09-06T09:43:40.250Z,10.3
2022-09-06T09:44:43.224Z,9.9
2022-09-06T09:45:39.166Z,11.5
2022-09-06T09:46:39.933Z,10.2
2022-09-06T09:47:39.569Z,9.5
2022-09-06T09:48:44.235Z,10.8
2022-09-06T09:49:39.199Z,10.3
2022-09-06T09:50:39.016Z,11.5
2022-09-06T09:51:46.341Z,11.2
2022-09-06T09:52:43.168Z,12.2
2022-09-06T09:53:44.196Z,13.3
2022-09-06T09:54:42.455Z,11.8
2022-09-06T09:55:39.937Z,12.4
2022-09-06T09:56:44.460Z,12.4
2022-09-06T09:57:43.688Z,10.5
2022-09-06T09:58:39.224Z,11.2
2022-09-06T09:59:42.113Z,13.1
2022-09-06T10:00:39.971Z,10.3
2022-09-06T10:01:39.106Z,10.8
2022-09-06T10:02:39.981Z,10.9
2022-09-06T10:04:47.715Z,11.4
2022-09-06T10:05:39.983Z,10.5
2022-09-06T10:07:08.995Z,11.3
2022-09-06T10:07:43.507Z,10.9
2022-09-06T10:08:40.531Z,12.5
2022-09-06T10:09:40.919Z,10.6
2022-09-06T10:10:40.913Z,9.7
2022-09-06T10:11:43.810Z,11.9
2022-09-06T10:12:40.745Z,10.8
2022-09-06T10:13:39.669Z,10.9
2022-09-06T10:14:43.783Z,11.0
2022-09-06T10:15:39.598Z,10.8
2022-09-06T10:16:43.530Z,9.8
2022-09-06T10:17:49.005Z,10.6
2022-09-06T10:18:40.114Z,10.0
2022-09-06T10:19:40.923Z,10.4
2022-09-06T10:20:49.316Z,10.4
2022-09-06T10:21:39.292Z,10.4
2022-09-06T10:22:55.174Z,9.8
2022-09-06T10:24:44.490Z,9.4
2022-09-06T10:25:46.362Z,9.2
2022-09-06T10:26:46.592Z,9.3
2022-09-06T10:27:55.664Z,10.6
2022-09-06T10:28:39.959Z,9.5
2022-09-06T10:29:57.252Z,9.8
2022-09-06T10:30:44.289Z,9.8
2022-09-06T10:31:44.101Z,9.2
2022-09-06T10:32:53.133Z,10.2
2022-09-06T10:33:44.088Z,10.7
2022-09-06T10:34:52.625Z,8.9
2022-09-06T10:35:39.642Z,8.9
2022-09-06T10:36:43.899Z,8.9
2022-09-06T10:37:47.079Z,8.9
2022-09-06T10:38:44.425Z,9.2
2022-09-06T10:39:50.166Z,8.2
2022-09-06T10:40:55.591Z,8.2
2022-09-06T10:41:55.631Z,8.6
2022-09-06T10:42:44.631Z,8.5
2022-09-06T10:43:43.222Z,8.3
2022-09-06T10:44:57.561Z,8.3
2022-09-06T10:45:49.601Z,8.7
2022-09-06T10:46:40.602Z,8.8
2022-09-06T10:47:59.188Z,7.8
2022-09-06T10:48:44.472Z,8.7
2022-09-06T10:49:41.040Z,7.6
2022-09-06T10:50:41.600Z,8.5
2022-09-06T10:51:42.240Z,8.7
2022-09-06T10:52:40.836Z,9.0
2022-09-06T10:53:44.926Z,8.7
2022-09-06T10:54:40.432Z,8.5
2022-09-06T10:55:39.885Z,7.7
2022-09-06T10:56:55.643Z,7.1
2022-09-06T10:59:44.163Z,7.3
2022-09-06T11:00:43.320Z,7.6
2022-09-06T11:01:45.541Z,7.6
2022-09-06T11:02:47.403Z,7.5
2022-09-06T11:04:00.170Z,7.8
2022-09-06T11:05:44.014Z,8.2
2022-09-06T11:06:47.663Z,7.7
2022-09-06T11:09:50.960Z,7.9
2022-09-06T11:10:41.639Z,8.5
2022-09-06T11:11:43.760Z,7.4
2022-09-06T11:12:57.571Z,8.6
2022-09-06T11:13:39.576Z,6.5
2022-09-06T11:14:39.574Z,6.9
2022-09-06T11:15:47.694Z,7.3
2022-09-06T11:16:44.606Z,7.6
2022-09-06T11:17:44.456Z,6.5
2022-09-06T11:18:43.022Z,6.8
2022-09-06T11:19:46.364Z,6.2
2022-09-06T11:20:42.732Z,7.2
2022-09-06T11:21:57.057Z,7.2
2022-09-06T11:22:53.122Z,7.4
2022-09-06T11:23:51.989Z,7.0
2022-09-06T11:24:52.628Z,6.2
2022-09-06T11:25:43.864Z,7.5
2022-09-06T11:26:42.209Z,7.4
2022-09-06T11:27:41.437Z,7.5
2022-09-06T11:28:43.626Z,6.7
2022-09-06T11:29:40.847Z,7.4
2022-09-06T11:30:42.344Z,6.5
2022-09-06T11:32:17.443Z,7.9
2022-09-06T11:32:41.673Z,6.6
2022-09-06T11:33:39.509Z,6.1
2022-09-06T11:34:39.124Z,6.9
2022-09-06T11:35:40.119Z,7.2
2022-09-06T11:36:44.536Z,7.3
2022-09-06T11:37:43.708Z,6.1
2022-09-06T11:38:39.686Z,6.1
2022-09-06T11:40:40.792Z,7.8
2022-09-06T11:41:40.867Z,7.1
2022-09-06T11:42:47.137Z,7.0
2022-09-06T11:43:46.171Z,6.8
2022-09-06T11:44:46.713Z,7.2
2022-09-06T11:45:40.635Z,7.9
2022-09-06T11:46:44.547Z,6.3
2022-09-06T11:47:41.302Z,6.4
2022-09-06T11:48:52.731Z,6.1
2022-09-06T11:49:39.068Z,6.7
2022-09-06T11:50:58.641Z,7.0
2022-09-06T11:51:42.650Z,6.3
2022-09-06T11:52:52.634Z,5.9
2022-09-06T11:53:53.146Z,7.0
2022-09-06T11:54:43.152Z,6.4
2022-09-06T11:55:42.356Z,6.4
2022-09-06T11:56:41.731Z,6.3
2022-09-06T11:57:40.186Z,6.3
2022-09-06T11:58:44.441Z,6.7
2022-09-06T11:59:44.285Z,7.1
2022-09-06T12:00:39.243Z,5.8
2022-09-06T12:01:39.582Z,7.2
2022-09-06T12:02:40.105Z,5.8
2022-09-06T12:04:07.927Z,5.9
2022-09-06T12:04:46.639Z,6.7
2022-09-06T12:05:57.597Z,6.4
2022-09-06T12:06:47.140Z,6.3
2022-09-06T12:07:57.073Z,6.4
2022-09-06T12:08:39.319Z,6.7
2022-09-06T12:09:42.921Z,5.8
2022-09-06T12:10:44.479Z,6.2
2022-09-06T12:11:44.239Z,6.4
2022-09-06T12:12:45.740Z,6.9
2022-09-06T12:13:49.642Z,8.7
2022-09-06T12:14:43.645Z,8.4
2022-09-06T12:15:50.219Z,8.0
2022-09-06T12:16:57.610Z,8.6
2022-09-06T12:17:45.481Z,10.1
2022-09-06T12:18:47.143Z,9.1
2022-09-06T12:19:55.304Z,8.4
2022-09-06T12:20:52.707Z,8.4
2022-09-06T12:21:44.331Z,8.1
2022-09-06T12:22:51.705Z,8.1
2022-09-06T12:23:40.282Z,9.1
2022-09-06T12:24:50.152Z,9.8
2022-09-06T12:25:44.285Z,9.3
2022-09-06T12:26:56.186Z,8.7
2022-09-06T12:27:44.369Z,8.6
2022-09-06T12:28:47.840Z,9.1
2022-09-06T12:29:44.413Z,9.8
2022-09-06T12:30:40.841Z,8.2
2022-09-06T12:31:41.404Z,8.8
2022-09-06T12:32:43.400Z,8.1
2022-09-06T12:33:39.647Z,9.8
2022-09-06T12:34:39.118Z,9.9
2022-09-06T12:35:58.343Z,8.4
2022-09-06T12:36:56.461Z,8.9
2022-09-06T12:37:57.587Z,9.5
2022-09-06T12:38:39.243Z,8.6
2022-09-06T12:39:39.045Z,8.9
2022-09-06T12:40:43.460Z,9.0
2022-09-06T12:41:43.940Z,8.9
2022-09-06T12:42:39.517Z,15.6
2022-09-06T12:43:39.654Z,13.6
2022-09-06T12:44:47.157Z,11.0
2022-09-06T12:45:45.585Z,10.7
2022-09-06T12:46:44.001Z,9.8
2022-09-06T12:47:39.798Z,9.3
2022-09-06T12:48:39.534Z,9.8
2022-09-06T12:49:39.456Z,11.6
2022-09-06T12:50:39.211Z,11.3
2022-09-06T12:51:39.915Z,9.6
2022-09-06T12:52:44.163Z,10.7
2022-09-06T12:53:39.546Z,11.2
2022-09-06T12:54:43.855Z,9.4
2022-09-06T12:55:39.166Z,10.5
2022-09-06T12:56:38.994Z,10.9
2022-09-06T12:57:43.859Z,10.9
2022-09-06T12:58:39.511Z,12.7
2022-09-06T12:59:44.586Z,12.6
2022-09-06T13:00:41.142Z,12.7
2022-09-06T13:01:40.447Z,11.4
2022-09-06T13:02:44.265Z,11.7
2022-09-06T13:03:57.952Z,12.7
2022-09-06T13:04:44.177Z,13.0
2022-09-06T13:05:42.782Z,11.5
2022-09-06T13:06:40.824Z,11.4
2022-09-06T13:07:41.607Z,13.3
2022-09-06T13:08:43.278Z,12.8
2022-09-06T13:09:41.096Z,12.6
2022-09-06T13:10:41.009Z,10.4
2022-09-06T13:11:42.872Z,10.8
2022-09-06T13:12:41.569Z,11.8
2022-09-06T13:13:48.598Z,12.1
2022-09-06T13:14:39.727Z,11.4
2022-09-06T13:15:44.342Z,11.0
2022-09-06T13:16:43.759Z,10.6
2022-09-06T13:17:39.326Z,10.2
2022-09-06T13:18:38.901Z,10.2
2022-09-06T13:19:40.277Z,8.7
2022-09-06T13:20:38.971Z,10.2
2022-09-06T13:21:40.699Z,8.6
2022-09-06T13:22:46.627Z,10.1
2022-09-06T13:23:43.351Z,9.9
2022-09-06T13:24:46.537Z,8.6
2022-09-06T13:25:48.934Z,8.6
2022-09-06T13:26:39.789Z,8.5
2022-09-06T13:27:41.616Z,8.7
2022-09-06T13:28:39.438Z,8.8
2022-09-06T13:29:44.003Z,8.8
2022-09-06T13:30:39.878Z,8.5
2022-09-06T13:31:43.805Z,8.7
2022-09-06T13:32:44.242Z,10.9
2022-09-06T13:33:39.835Z,11.4
2022-09-06T13:34:43.941Z,14.9
2022-09-06T13:35:39.725Z,17.1
2022-09-06T13:36:39.065Z,12.9
2022-09-06T13:37:39.006Z,19.7
2022-09-06T13:38:42.225Z,24.7
2022-09-06T13:39:40.986Z,20.0
2022-09-06T13:41:06.966Z,19.8
2022-09-06T13:41:39.747Z,18.0
2022-09-06T13:42:39.667Z,17.8
2022-09-06T13:43:41.663Z,17.9
2022-09-06T13:44:39.014Z,21.6
2022-09-06T13:45:39.913Z,18.6
2022-09-06T13:46:39.578Z,18.1
2022-09-06T13:47:39.611Z,15.6
2022-09-06T13:48:39.878Z,16.8
2022-09-06T13:49:39.227Z,19.6
2022-09-06T13:50:40.229Z,21.0
2022-09-06T13:51:40.797Z,21.1
2022-09-06T13:52:39.007Z,17.6
2022-09-06T13:53:39.199Z,18.1
2022-09-06T13:54:39.516Z,18.6
2022-09-06T13:55:39.301Z,16.6
2022-09-06T13:56:39.444Z,18.3
2022-09-06T13:57:38.949Z,14.9
2022-09-06T13:58:39.616Z,15.9
2022-09-06T13:59:39.422Z,14.5
2022-09-06T14:00:39.269Z,15.5